Time;durP1;ratioP1;P1;durP2;ratioP2;P2;SDS_P1;SDS_P2;PMS_P1;PMS_P2;Temp;Humidity;BMP_temperature;BMP_pressure;BME280_temperature;BME280_humidity;BME280_pressure;Samples;Min_cycle;Max_cycle;Signal;HPM_P1;HPM_P2
2021/06/20 00:00:37;;;;;;;9.83;9.03;;;29.00;56.00;;;;;;4952946;29;20431;-80
2021/06/20 00:03:08;;;;;;;9.83;8.83;;;29.00;55.90;;;;;;4953032;29;20446;-80
2021/06/20 00:05:47;;;;;;;10.53;9.47;;;29.00;55.90;;;;;;4952833;29;20427;-80
2021/06/20 00:08:21;;;;;;;10.13;9.30;;;29.00;55.90;;;;;;4954004;29;20430;-79
2021/06/20 00:10:51;;;;;;;10.43;9.40;;;29.00;56.00;;;;;;4953400;29;20430;-79
2021/06/20 00:13:23;;;;;;;10.50;9.60;;;29.00;55.90;;;;;;4952387;29;20494;-79
2021/06/20 00:16:13;;;;;;;9.80;8.90;;;29.00;55.90;;;;;;4955940;29;20455;-78
2021/06/20 00:19:16;;;;;;;10.67;9.77;;;29.00;55.90;;;;;;4958974;29;20447;-78
2021/06/20 00:22:15;;;;;;;;;;;;;;;;;;;;;
2021/06/20 00:44:03;;;;;;;9.90;9.03;;;29.00;56.00;;;;;;4827022;29;20506;-79
2021/06/20 00:46:39;;;;;;;9.93;9.03;;;28.90;55.90;;;;;;4826568;29;20453;-79
2021/06/20 00:49:26;;;;;;;9.97;8.97;;;29.00;56.00;;;;;;4821768;29;20526;-80
2021/06/20 00:52:07;;;;;;;10.27;9.33;;;28.90;55.90;;;;;;4812014;29;20417;-79
2021/06/20 00:54:47;;;;;;;10.07;9.27;;;29.00;55.90;;;;;;4821886;29;20428;-80
2021/06/20 00:57:42;;;;;;;;;;;;;;;;;;;;;
2021/06/20 01:00:27;;;;;;;9.67;8.77;;;29.00;55.80;;;;;;4817928;29;20456;-80
2021/06/20 01:03:06;;;;;;;9.93;9.10;;;29.00;55.80;;;;;;4822475;29;20413;-80
2021/06/20 01:05:36;;;;;;;10.10;9.20;;;29.00;55.90;;;;;;4809852;29;20480;-81
2021/06/20 01:08:03;;;;;;;10.10;9.20;;;29.00;55.90;;;;;;4811242;29;20453;-80
2021/06/20 01:10:36;;;;;;;9.97;9.17;;;29.00;55.80;;;;;;4825883;29;20425;-79
2021/06/20 01:13:04;;;;;;;9.77;8.87;;;29.00;55.80;;;;;;4826227;29;20424;-80
2021/06/20 01:15:36;;;;;;;9.67;8.77;;;29.00;55.80;;;;;;4795637;29;20527;-79
2021/06/20 01:18:03;;;;;;;11.30;9.80;;;29.00;55.70;;;;;;4899255;29;20462;-78
2021/06/20 01:20:29;;;;;;;10.60;9.70;;;29.00;55.70;;;;;;4917830;29;20420;-79
2021/06/20 01:22:55;;;;;;;10.47;9.47;;;29.00;55.70;;;;;;4902078;29;20493;-79
2021/06/20 01:25:23;;;;;;;9.97;9.17;;;29.00;55.70;;;;;;4917483;29;20461;-80
2021/06/20 01:27:57;;;;;;;9.67;8.77;;;29.00;55.70;;;;;;4918007;29;20444;-78
2021/06/20 01:30:31;;;;;;;10.83;9.83;;;29.00;55.70;;;;;;4913022;29;20432;-78
2021/06/20 01:33:02;;;;;;;10.20;9.20;;;29.00;55.70;;;;;;4888218;29;20916;-78
2021/06/20 01:35:28;;;;;;;9.57;8.87;;;28.90;55.70;;;;;;4885198;29;20456;-80
2021/06/20 01:37:56;;;;;;;10.50;9.60;;;29.00;55.80;;;;;;4885253;29;20418;-80
2021/06/20 01:40:23;;;;;;;10.23;9.37;;;29.00;55.70;;;;;;4884707;29;20417;-81
2021/06/20 01:43:08;;;;;;;10.60;9.50;;;29.00;55.70;;;;;;4884676;29;20981;-81
2021/06/20 01:45:36;;;;;;;9.90;8.90;;;29.00;55.70;;;;;;4884941;29;20543;-81
2021/06/20 01:48:07;;;;;;;10.77;9.77;;;29.00;55.70;;;;;;4884731;29;20461;-81
2021/06/20 01:50:36;;;;;;;10.10;9.10;;;29.00;55.70;;;;;;4884523;29;20421;-81
2021/06/20 01:53:16;;;;;;;10.17;9.37;;;29.00;55.70;;;;;;4884169;29;20442;-80
2021/06/20 01:55:44;;;;;;;10.30;9.37;;;29.00;55.60;;;;;;4899060;29;20480;-79
2021/06/20 01:58:21;;;;;;;10.70;9.70;;;29.00;55.70;;;;;;4898212;29;20425;-79
2021/06/20 02:00:49;;;;;;;10.10;9.10;;;29.00;55.70;;;;;;4882197;29;20484;-79
2021/06/20 02:03:25;;;;;;;9.33;8.53;;;29.00;55.60;;;;;;4881210;29;20430;-79
2021/06/20 02:06:03;;;;;;;9.50;8.70;;;29.00;55.60;;;;;;4882372;29;20417;-79
2021/06/20 02:08:33;;;;;;;9.20;8.60;;;29.00;55.60;;;;;;4897470;29;20457;-79
2021/06/20 02:11:01;;;;;;;10.53;9.63;;;29.00;55.70;;;;;;4881754;29;20421;-79
2021/06/20 02:13:29;;;;;;;11.33;10.23;;;29.00;55.60;;;;;;4881228;29;20429;-79
2021/06/20 02:15:59;;;;;;;9.30;8.60;;;29.00;55.60;;;;;;4881795;29;20425;-79
2021/06/20 02:18:25;;;;;;;10.10;9.30;;;29.00;55.60;;;;;;4881792;29;20595;-79
2021/06/20 02:20:51;;;;;;;11.67;10.70;;;29.00;55.60;;;;;;4897017;29;20425;-78
2021/06/20 02:23:20;;;;;;;11.30;10.20;;;29.00;55.70;;;;;;4866475;29;20515;-78
2021/06/20 02:25:49;;;;;;;10.13;9.20;;;29.00;55.70;;;;;;4897708;29;20458;-79
2021/06/20 02:28:18;;;;;;;10.60;9.70;;;28.90;55.60;;;;;;4882061;29;20465;-80
2021/06/20 02:30:44;;;;;;;10.60;9.70;;;28.90;55.70;;;;;;4882237;29;20457;-80
2021/06/20 02:33:13;;;;;;;11.07;9.97;;;28.90;55.70;;;;;;4917539;29;20416;-80
2021/06/20 02:35:42;;;;;;;10.83;9.93;;;28.90;55.70;;;;;;4905818;29;20408;-80
2021/06/20 02:38:11;;;;;;;10.47;9.57;;;28.90;55.80;;;;;;4936091;29;20512;-80
2021/06/20 02:40:40;;;;;;;12.03;9.90;;;28.90;55.80;;;;;;4935739;29;20455;-80
2021/06/20 02:43:06;;;;;;;11.23;10.20;;;28.90;55.80;;;;;;4935873;29;20944;-79
2021/06/20 02:45:52;;;;;;;11.00;9.90;;;28.80;55.70;;;;;;4935734;29;20443;-80
2021/06/20 02:48:18;;;;;;;10.43;9.30;;;28.90;56.40;;;;;;4936793;29;20467;-80
2021/06/20 02:50:45;;;;;;;11.20;10.20;;;28.80;55.80;;;;;;4937614;29;20408;-80
2021/06/20 02:53:14;;;;;;;10.30;9.50;;;28.80;55.80;;;;;;4936011;29;20424;-80
2021/06/20 02:59:06;;;;;;;10.90;9.90;;;28.80;55.70;;;;;;4937417;29;20463;-80
2021/06/20 03:01:38;;;;;;;10.97;9.97;;;28.80;55.90;;;;;;4935209;29;20420;-80
2021/06/20 03:04:07;;;;;;;10.90;10.00;;;28.70;55.80;;;;;;4935464;29;20416;-80
2021/06/20 03:06:33;;;;;;;10.20;9.20;;;28.80;55.80;;;;;;4935976;29;20906;-80
2021/06/20 03:08:59;;;;;;;11.60;10.50;;;28.70;55.70;;;;;;4936186;29;20471;-79
2021/06/20 03:11:25;;;;;;;10.93;9.97;;;28.70;55.70;;;;;;4935653;29;20187;-80
2021/06/20 03:13:52;;;;;;;10.70;9.77;;;28.70;55.70;;;;;;4935564;29;20416;-80
2021/06/20 03:16:23;;;;;;;10.57;9.67;;;28.70;55.70;;;;;;4934255;29;20424;-80
2021/06/20 03:18:53;;;;;;;10.73;9.83;;;28.70;55.70;;;;;;4935594;29;20404;-80
2021/06/20 03:21:19;;;;;;;11.07;10.13;;;28.70;55.70;;;;;;4919091;29;20434;-79
2021/06/20 03:23:45;;;;;;;11.00;10.17;;;28.70;55.70;;;;;;4934903;29;20416;-80
2021/06/20 03:26:15;;;;;;;10.40;9.10;;;28.70;55.70;;;;;;4934947;29;20415;-80
2021/06/20 03:28:44;;;;;;;10.33;9.40;;;28.70;55.70;;;;;;4934084;29;20459;-80
2021/06/20 03:31:26;;;;;;;10.90;9.90;;;28.70;55.70;;;;;;4920989;29;20428;-78
2021/06/20 03:33:53;;;;;;;10.43;9.43;;;28.80;55.80;;;;;;4939488;29;20424;-78
2021/06/20 03:36:24;;;;;;;10.23;9.20;;;28.70;55.70;;;;;;4940453;29;20415;-78
2021/06/20 03:38:57;;;;;;;11.13;10.13;;;28.70;55.70;;;;;;4939374;29;20420;-79
2021/06/20 03:41:45;;;;;;;10.53;9.63;;;28.70;55.70;;;;;;4924984;29;20399;-80
2021/06/20 03:44:22;;;;;;;12.03;10.93;;;28.70;55.70;;;;;;4922116;29;20446;-80
2021/06/20 03:46:50;;;;;;;10.50;9.50;;;28.70;55.70;;;;;;4919120;29;20424;-79
2021/06/20 03:49:24;;;;;;;14.23;10.60;;;28.70;55.70;;;;;;5159986;27;286827;-78
2021/06/20 03:51:52;;;;;;;10.97;10.07;;;28.70;55.70;;;;;;5131499;28;20446;-79
2021/06/20 03:54:18;;;;;;;11.30;10.17;;;28.70;55.60;;;;;;5149780;28;20180;-78
2021/06/20 03:56:44;;;;;;;10.23;9.27;;;28.70;55.50;;;;;;5149835;28;20413;-79
2021/06/20 03:59:11;;;;;;;11.27;10.17;;;28.70;55.50;;;;;;5131371;28;20414;-79
2021/06/20 04:01:43;;;;;;;10.90;9.90;;;28.70;55.50;;;;;;5131866;28;20172;-79
2021/06/20 04:04:09;;;;;;;10.60;9.63;;;28.70;55.40;;;;;;5131890;28;20434;-79
2021/06/20 04:06:35;;;;;;;11.20;10.30;;;28.60;55.40;;;;;;5133557;28;20429;-79
2021/06/20 04:09:03;;;;;;;11.40;10.30;;;28.60;55.40;;;;;;5138344;28;20478;-80
2021/06/20 04:11:29;;;;;;;12.47;11.37;;;28.70;55.40;;;;;;5138191;28;20398;-80
2021/06/20 04:13:55;;;;;;;12.60;11.60;;;28.60;55.40;;;;;;5138677;28;20421;-80
2021/06/20 04:16:22;;;;;;;11.63;10.70;;;28.60;55.30;;;;;;5138402;28;20179;-80
2021/06/20 04:18:48;;;;;;;11.93;10.80;;;28.60;55.30;;;;;;5138299;28;20443;-80
2021/06/20 04:21:16;;;;;;;12.10;11.00;;;28.60;55.30;;;;;;5155589;28;20421;-80
2021/06/20 04:23:48;;;;;;;11.00;10.10;;;28.60;55.30;;;;;;5138109;28;20410;-80
2021/06/20 04:26:17;;;;;;;10.63;9.77;;;28.60;55.30;;;;;;5137882;28;20425;-80
2021/06/20 04:28:45;;;;;;;11.03;10.07;;;28.60;55.30;;;;;;5137837;28;20437;-80
2021/06/20 04:31:14;;;;;;;10.50;9.50;;;28.60;55.30;;;;;;5137908;28;20426;-80
2021/06/20 04:33:44;;;;;;;12.00;11.00;;;28.60;55.30;;;;;;5138151;28;20402;-80
2021/06/20 04:36:19;;;;;;;10.80;9.90;;;28.60;55.40;;;;;;5155569;28;20443;-80
2021/06/20 04:38:45;;;;;;;11.80;10.83;;;28.60;55.40;;;;;;5137964;28;20421;-80
2021/06/20 04:41:15;;;;;;;11.67;10.43;;;28.60;55.40;;;;;;5155544;28;20401;-80
2021/06/20 04:46:34;;;;;;;12.00;10.90;;;28.60;55.40;;;;;;5155156;28;20409;-80
2021/06/20 04:49:06;;;;;;;11.30;10.30;;;28.60;55.40;;;;;;5137460;28;20480;-81
2021/06/20 04:51:40;;;;;;;11.27;10.37;;;28.60;55.50;;;;;;5136130;28;20417;-85
2021/06/20 04:54:11;;;;;;;11.33;10.23;;;28.60;55.50;;;;;;5154480;28;20427;-79
2021/06/20 04:56:41;;;;;;;11.27;10.27;;;28.60;55.60;;;;;;5154096;28;20417;-79
2021/06/20 04:59:10;;;;;;;11.20;10.20;;;28.70;55.60;;;;;;5132972;28;20482;-79
2021/06/20 05:01:39;;;;;;;10.73;9.93;;;28.70;55.60;;;;;;5123516;28;20418;-80
2021/06/20 05:04:09;;;;;;;11.10;10.30;;;28.60;55.50;;;;;;5140595;28;20407;-80
2021/06/20 05:06:40;;;;;;;11.20;10.10;;;28.70;55.60;;;;;;5122996;28;20415;-80
2021/06/20 05:09:06;;;;;;;10.80;10.00;;;28.60;55.50;;;;;;5123349;28;20446;-80
2021/06/20 05:11:32;;;;;;;10.93;10.00;;;28.60;55.60;;;;;;5123448;28;20847;-80
2021/06/20 05:14:01;;;;;;;9.83;8.90;;;28.60;55.60;;;;;;5122258;28;20411;-80
2021/06/20 05:16:27;;;;;;;11.37;10.37;;;28.70;55.60;;;;;;5122696;28;20488;-80
2021/06/20 05:18:53;;;;;;;10.20;9.40;;;28.70;55.60;;;;;;5121480;28;20418;-80
2021/06/20 05:21:21;;;;;;;10.17;9.40;;;28.70;55.60;;;;;;5139975;28;20426;-81
2021/06/20 05:23:48;;;;;;;10.53;9.63;;;28.70;55.60;;;;;;5138777;28;20172;-79
2021/06/20 05:26:23;;;;;;;10.40;9.60;;;28.70;55.60;;;;;;5138762;28;20399;-79
2021/06/20 05:28:49;;;;;;;9.73;9.00;;;28.70;55.60;;;;;;5122231;28;20469;-79
2021/06/20 05:31:21;;;;;;;10.60;9.60;;;28.70;55.60;;;;;;5139083;28;20379;-80
2021/06/20 05:33:53;;;;;;;9.73;9.00;;;28.70;55.60;;;;;;5138820;28;20402;-79
2021/06/20 05:36:45;;;;;;;11.97;10.97;;;28.70;55.60;;;;;;5121295;28;20407;-79
2021/06/20 05:39:12;;;;;;;11.17;9.70;;;28.70;55.60;;;;;;5120471;28;20441;-79
2021/06/20 05:41:38;;;;;;;11.40;10.60;;;28.70;55.70;;;;;;5119828;28;20415;-79
2021/06/20 05:44:06;;;;;;;11.50;10.60;;;28.70;55.70;;;;;;5135366;28;20413;-80
2021/06/20 05:46:35;;;;;;;10.90;10.00;;;28.70;55.70;;;;;;5115664;28;20482;-81
2021/06/20 05:49:07;;;;;;;12.13;10.93;;;28.70;55.70;;;;;;5115510;28;20515;-93
2021/06/20 05:51:34;;;;;;;9.63;8.93;;;28.70;55.70;;;;;;5134689;28;20424;-80
2021/06/20 05:54:18;;;;;;;12.13;10.97;;;28.70;55.70;;;;;;5136524;28;20394;-80
2021/06/20 05:56:45;;;;;;;10.50;9.60;;;28.80;55.70;;;;;;5101568;28;20423;-80
2021/06/20 05:59:11;;;;;;;10.37;9.47;;;28.70;55.70;;;;;;5100576;28;20447;-80
2021/06/20 06:01:39;;;;;;;11.20;10.33;;;28.70;55.70;;;;;;5117787;28;20418;-80
2021/06/20 06:04:06;;;;;;;12.80;11.57;;;28.70;55.70;;;;;;5118258;28;20444;-80
2021/06/20 06:06:32;;;;;;;12.03;10.93;;;28.70;55.80;;;;;;5118553;28;20423;-80
2021/06/20 06:08:58;;;;;;;11.13;10.00;;;28.80;55.80;;;;;;5118208;28;20454;-80
2021/06/20 06:11:24;;;;;;;11.73;10.73;;;28.80;55.80;;;;;;5134338;28;20399;-80
2021/06/20 06:13:50;;;;;;;11.03;10.13;;;28.80;55.80;;;;;;5118008;28;20403;-80
2021/06/20 06:16:19;;;;;;;11.87;10.80;;;28.80;55.80;;;;;;5116628;28;20173;-80
2021/06/20 06:18:48;;;;;;;11.40;10.30;;;28.90;56.00;;;;;;5116564;28;20485;-80
2021/06/20 06:21:13;;;;;;;12.70;10.90;;;28.90;55.90;;;;;;5100050;28;20515;-80
2021/06/20 06:23:40;;;;;;;12.20;11.20;;;28.90;55.90;;;;;;5135583;28;20448;-80
2021/06/20 06:26:06;;;;;;;11.37;10.33;;;28.90;55.90;;;;;;5117611;28;20176;-80
2021/06/20 06:28:36;;;;;;;11.70;10.80;;;28.90;55.90;;;;;;5135300;28;20447;-80
2021/06/20 06:31:05;;;;;;;11.03;10.13;;;28.90;55.80;;;;;;5116954;28;20407;-80
2021/06/20 06:33:32;;;;;;;10.37;9.47;;;28.90;55.90;;;;;;5116475;28;20419;-79
2021/06/20 06:36:03;;;;;;;11.30;10.37;;;28.90;55.90;;;;;;5134739;28;20411;-79
2021/06/20 06:38:30;;;;;;;12.53;10.17;;;28.90;55.80;;;;;;5117152;28;20447;-80
2021/06/20 06:40:57;;;;;;;11.67;10.77;;;28.90;55.90;;;;;;5135082;28;20474;-80
2021/06/20 06:43:28;;;;;;;10.77;9.80;;;28.90;55.90;;;;;;5117139;28;20438;-80
2021/06/20 06:46:00;;;;;;;10.93;10.00;;;28.90;55.90;;;;;;5116771;28;20435;-80
2021/06/20 06:48:26;;;;;;;11.70;10.80;;;28.90;55.90;;;;;;5116013;28;20466;-79
2021/06/20 06:50:58;;;;;;;11.63;10.53;;;28.80;55.80;;;;;;5099695;28;20391;-79
2021/06/20 06:53:25;;;;;;;11.50;10.50;;;28.80;55.80;;;;;;5098844;28;20415;-79
2021/06/20 06:55:54;;;;;;;10.60;9.80;;;28.80;55.80;;;;;;5116532;28;20430;-79
2021/06/20 06:58:21;;;;;;;10.93;10.07;;;28.90;55.90;;;;;;5134618;28;20415;-79
2021/06/20 07:00:48;;;;;;;10.60;9.80;;;28.90;55.90;;;;;;5116182;28;20414;-77
2021/06/20 07:03:14;;;;;;;10.67;9.83;;;28.90;55.90;;;;;;5115911;28;20515;-78
2021/06/20 07:05:42;;;;;;;10.60;9.80;;;28.80;55.80;;;;;;5133462;28;20410;-78
2021/06/20 07:08:11;;;;;;;12.63;10.43;;;28.90;55.90;;;;;;5115995;28;20221;-78
2021/06/20 07:10:42;;;;;;;10.10;9.30;;;28.80;55.90;;;;;;5099295;28;20413;-78
2021/06/20 07:13:30;;;;;;;10.30;9.50;;;28.80;55.80;;;;;;5132785;28;20415;-78
2021/06/20 07:15:57;;;;;;;11.00;9.90;;;28.90;56.00;;;;;;5115293;28;20450;-78
2021/06/20 07:18:23;;;;;;;10.60;9.60;;;28.80;55.80;;;;;;5133695;28;20410;-78
2021/06/20 07:20:52;;;;;;;11.53;10.63;;;28.80;55.80;;;;;;5098966;28;20451;-79
2021/06/20 07:23:26;;;;;;;11.33;9.67;;;28.80;55.80;;;;;;5133651;28;20403;-79
2021/06/20 07:25:55;;;;;;;10.37;9.57;;;28.90;55.90;;;;;;5133342;28;20403;-78
2021/06/20 07:28:21;;;;;;;9.50;8.50;;;28.90;56.00;;;;;;5114869;28;20491;-78
2021/06/20 07:30:50;;;;;;;10.50;9.40;;;28.80;56.00;;;;;;5133242;28;20455;-79
2021/06/20 07:33:31;;;;;;;10.43;9.47;;;28.90;56.00;;;;;;5133853;28;20918;-79
2021/06/20 07:36:01;;;;;;;11.07;9.40;;;28.90;56.00;;;;;;5117241;28;20414;-77
2021/06/20 07:38:28;;;;;;;8.60;7.80;;;28.80;55.90;;;;;;5114685;28;20429;-78
2021/06/20 07:40:54;;;;;;;12.20;8.37;;;28.80;55.90;;;;;;5115711;28;20426;-79
2021/06/20 07:43:22;;;;;;;8.90;7.50;;;28.90;55.90;;;;;;5116310;28;20411;-79
2021/06/20 07:45:56;;;;;;;8.77;7.90;;;28.90;55.90;;;;;;5116021;28;20411;-78
2021/06/20 07:48:31;;;;;;;8.53;6.90;;;28.80;55.90;;;;;;5134201;28;20462;-79
2021/06/20 07:50:57;;;;;;;8.33;7.47;;;28.90;55.90;;;;;;5116402;28;20407;-79
2021/06/20 07:53:24;;;;;;;7.13;6.43;;;28.80;55.90;;;;;;5136458;28;20884;-79
2021/06/20 07:55:51;;;;;;;7.27;6.57;;;28.90;55.90;;;;;;5117458;28;20414;-79
2021/06/20 07:58:17;;;;;;;7.60;6.70;;;28.90;55.90;;;;;;5116662;28;20410;-79
2021/06/20 08:00:46;;;;;;;9.53;6.73;;;28.90;55.90;;;;;;5115387;28;20418;-79
2021/06/20 08:03:18;;;;;;;9.50;6.27;;;28.90;56.00;;;;;;5116016;28;20772;-79
2021/06/20 08:05:48;;;;;;;6.97;6.37;;;28.90;55.90;;;;;;5097894;28;20426;-80
2021/06/20 08:08:26;;;;;;;7.37;6.20;;;28.90;55.90;;;;;;5115953;28;20458;-80
2021/06/20 08:11:00;;;;;;;7.30;6.00;;;28.90;55.90;;;;;;5136506;28;20387;-80
2021/06/20 08:13:27;;;;;;;6.43;5.83;;;28.90;55.90;;;;;;5116273;28;20407;-79
2021/06/20 08:15:53;;;;;;;8.57;6.30;;;28.90;55.90;;;;;;5133858;28;20403;-80
2021/06/20 08:18:19;;;;;;;7.87;5.90;;;28.90;55.90;;;;;;5115301;28;20410;-80
2021/06/20 08:20:48;;;;;;;10.03;5.87;;;28.90;55.90;;;;;;5132996;28;20431;-79
2021/06/20 08:23:16;;;;;;;6.10;5.20;;;28.90;55.90;;;;;;5133251;28;20781;-80
2021/06/20 08:25:46;;;;;;;6.87;6.17;;;28.90;55.90;;;;;;5114914;28;20415;-80
2021/06/20 08:28:12;;;;;;;5.77;5.17;;;28.90;55.80;;;;;;5115227;28;20458;-80
2021/06/20 08:30:38;;;;;;;6.23;5.63;;;28.90;55.80;;;;;;5115387;28;20440;-79
2021/06/20 08:33:05;;;;;;;10.50;5.60;;;28.90;55.80;;;;;;5133437;28;20162;-80
2021/06/20 08:35:36;;;;;;;7.77;4.80;;;28.90;55.90;;;;;;5119143;28;20236;-80
2021/06/20 08:38:03;;;;;;;6.70;5.70;;;28.90;55.80;;;;;;5119979;28;20438;-80
2021/06/20 08:40:33;;;;;;;5.60;5.10;;;28.90;55.80;;;;;;5138235;28;20419;-80
2021/06/20 08:43:06;;;;;;;8.47;4.53;;;28.90;55.80;;;;;;5119906;28;20486;-80
2021/06/20 08:45:35;;;;;;;8.17;5.40;;;28.90;55.80;;;;;;5101703;28;20426;-80
2021/06/20 08:48:01;;;;;;;6.80;4.83;;;28.90;55.80;;;;;;5118873;28;20466;-79
2021/06/20 08:50:28;;;;;;;8.20;4.60;;;28.80;55.70;;;;;;5119854;28;20399;-80
2021/06/20 08:52:55;;;;;;;7.10;4.77;;;28.90;55.70;;;;;;5137308;28;20398;-77
2021/06/20 08:55:23;;;;;;;6.60;4.67;;;28.90;55.70;;;;;;5118542;28;20758;-78
2021/06/20 08:57:52;;;;;;;6.37;4.30;;;28.90;55.70;;;;;;5118897;28;20411;-79
2021/06/20 09:00:19;;;;;;;5.00;4.20;;;28.90;55.70;;;;;;5118366;28;20751;-79
2021/06/20 09:02:57;;;;;;;4.10;3.63;;;28.90;55.70;;;;;;5102017;28;20425;-79
2021/06/20 09:05:23;;;;;;;6.60;4.30;;;28.90;55.60;;;;;;5137423;28;20391;-79
2021/06/20 09:07:49;;;;;;;6.43;4.27;;;28.90;55.50;;;;;;5136699;28;20454;-78
2021/06/20 09:10:22;;;;;;;7.03;4.20;;;28.80;55.30;;;;;;5137244;28;20410;-79
2021/06/20 09:12:54;;;;;;;7.97;3.23;;;28.80;55.00;;;;;;5136732;28;20403;-79
2021/06/20 09:15:26;;;;;;;4.80;3.73;;;28.80;55.00;;;;;;5118374;28;20418;-78
2021/06/20 09:18:00;;;;;;;5.40;3.50;;;28.90;55.00;;;;;;5118201;28;20449;-79
2021/06/20 09:20:42;;;;;;;5.03;3.53;;;28.80;54.80;;;;;;5102361;28;20407;-80
2021/06/20 09:23:17;;;;;;;4.20;3.10;;;28.80;54.80;;;;;;5118733;28;20417;-79
2021/06/20 09:25:52;;;;;;;3.40;3.00;;;28.80;54.80;;;;;;5118103;28;20414;-80
2021/06/20 09:28:18;;;;;;;5.40;3.37;;;28.80;54.70;;;;;;5118868;28;20438;-79
2021/06/20 09:30:52;;;;;;;6.50;3.43;;;28.80;54.70;;;;;;5136378;28;20482;-79
2021/06/20 09:33:20;;;;;;;3.90;2.67;;;28.80;54.70;;;;;;5117527;28;20165;-79
2021/06/20 09:35:55;;;;;;;6.10;3.20;;;28.80;54.80;;;;;;5118046;28;20415;-79
2021/06/20 09:38:25;;;;;;;4.33;3.33;;;28.80;54.70;;;;;;5117929;28;20406;-80
2021/06/20 09:40:53;;;;;;;7.40;2.70;;;28.80;54.70;;;;;;5119464;28;20454;-78
2021/06/20 09:43:22;;;;;;;5.27;2.60;;;28.70;54.70;;;;;;5120511;28;20415;-79
2021/06/20 09:45:49;;;;;;;5.60;3.30;;;28.70;54.60;;;;;;5137983;28;20403;-78
2021/06/20 09:48:25;;;;;;;4.03;2.53;;;28.70;54.60;;;;;;5103442;28;20469;-78
2021/06/20 09:50:53;;;;;;;5.67;2.37;;;28.70;54.70;;;;;;5117316;28;20402;-80
2021/06/20 09:53:30;;;;;;;4.23;2.37;;;28.70;54.70;;;;;;5118114;28;20411;-80
2021/06/20 09:56:18;;;;;;;3.00;2.13;;;28.80;54.70;;;;;;5117102;28;20414;-79
2021/06/20 09:58:45;;;;;;;4.93;3.03;;;28.70;54.60;;;;;;5116427;28;20419;-79
2021/06/20 10:01:17;;;;;;;5.73;3.20;;;28.70;54.80;;;;;;5116282;28;20474;-78
2021/06/20 10:03:58;;;;;;;4.23;3.10;;;28.70;54.80;;;;;;5119090;28;20409;-77
2021/06/20 10:06:30;;;;;;;5.30;2.60;;;28.80;54.90;;;;;;5104787;28;20420;-79
2021/06/20 10:08:57;;;;;;;3.63;3.10;;;28.70;54.90;;;;;;5117751;28;20455;-80
2021/06/20 10:11:23;;;;;;;5.20;2.70;;;28.70;54.90;;;;;;5117015;28;20531;-80
2021/06/20 10:13:49;;;;;;;4.97;2.27;;;28.80;55.00;;;;;;5117247;28;20176;-80
2021/06/20 10:16:32;;;;;;;4.00;2.60;;;28.70;55.00;;;;;;5116589;28;20407;-79
2021/06/20 10:19:17;;;;;;;3.93;2.47;;;28.80;55.00;;;;;;5115259;28;20402;-79
2021/06/20 10:21:46;;;;;;;7.33;2.63;;;28.80;55.10;;;;;;5116237;28;20507;-77
2021/06/20 10:24:15;;;;;;;4.97;2.40;;;28.80;55.00;;;;;;5116122;28;20411;-78
2021/06/20 10:26:46;;;;;;;5.37;2.30;;;28.80;55.00;;;;;;5116267;28;20418;-78
2021/06/20 10:36:45;;;;;;;4.00;2.23;;;28.70;54.90;;;;;;5091716;28;20392;-79
2021/06/20 10:42:31;;;;;;;3.63;2.60;;;28.70;55.00;;;;;;5051740;28;20409;-80
2021/06/20 10:45:26;;;;;;;3.40;2.40;;;28.70;55.00;;;;;;5018520;28;20437;-80
2021/06/20 10:47:52;;;;;;;3.73;2.77;;;28.70;55.00;;;;;;5033270;28;20908;-79
2021/06/20 10:50:39;;;;;;;3.70;2.03;;;28.70;55.10;;;;;;5034330;28;20445;-79
2021/06/20 10:53:18;;;;;;;2.50;2.30;;;28.70;55.00;;;;;;5051375;28;20425;-81
2021/06/20 10:56:30;;;;;;;4.63;2.47;;;28.70;55.00;;;;;;5050996;28;20483;-80
2021/06/20 10:59:19;;;;;;;10.73;3.40;;;28.70;55.00;;;;;;5048507;28;20444;-79
2021/06/20 11:01:44;;;;;;;2.50;2.30;;;28.70;55.00;;;;;;5055468;28;20411;-78
2021/06/20 11:04:13;;;;;;;2.60;2.23;;;28.70;55.10;;;;;;5059179;28;20417;-79
2021/06/20 11:06:39;;;;;;;2.47;2.17;;;28.70;55.00;;;;;;5078998;28;20428;-79
2021/06/20 11:09:08;;;;;;;2.60;2.07;;;28.70;55.00;;;;;;5089827;28;20456;-79
2021/06/20 11:11:51;;;;;;;6.17;2.30;;;28.80;55.10;;;;;;5073894;28;20443;-77
2021/06/20 11:14:19;;;;;;;3.97;2.13;;;28.70;55.00;;;;;;5073622;28;20404;-78
2021/06/20 11:16:51;;;;;;;2.70;2.13;;;28.80;55.10;;;;;;5108134;28;20403;-80
2021/06/20 11:19:22;;;;;;;2.80;2.40;;;28.80;55.10;;;;;;5114181;28;20438;-78
2021/06/20 11:21:48;;;;;;;4.00;2.50;;;28.80;55.00;;;;;;5132161;28;20941;-78
2021/06/20 11:24:23;;;;;;;3.97;2.60;;;28.80;55.00;;;;;;5114846;28;20415;-78
2021/06/20 11:27:20;;;;;;;4.00;2.80;;;28.80;55.10;;;;;;5115317;28;20241;-78
2021/06/20 11:29:54;;;;;;;2.80;2.00;;;28.80;55.00;;;;;;5102000;28;20422;-79
2021/06/20 11:32:46;;;;;;;3.53;2.20;;;28.80;55.10;;;;;;5137119;28;20470;-78
2021/06/20 11:35:20;;;;;;;4.13;2.43;;;28.80;55.00;;;;;;5116190;28;20426;-78
2021/06/20 11:37:53;;;;;;;3.57;2.57;;;28.80;55.10;;;;;;5120773;28;20413;-78
2021/06/20 11:40:40;;;;;;;;;;;;;;;;;;;;;
2021/06/20 11:43:13;;;;;;;3.20;1.73;;;28.80;55.10;;;;;;5130212;28;20426;-78
2021/06/20 11:46:01;;;;;;;2.33;2.13;;;28.80;55.10;;;;;;5120001;28;20410;-78
2021/06/20 11:48:51;;;;;;;2.20;2.00;;;28.80;55.10;;;;;;5119238;28;20470;-78
2021/06/20 11:51:53;;;;;;;3.50;2.37;;;28.80;55.10;;;;;;5134140;28;20411;-79
2021/06/20 11:54:22;;;;;;;4.33;2.30;;;28.80;55.10;;;;;;5116278;28;20386;-80
2021/06/20 11:57:10;;;;;;;2.97;2.10;;;28.80;55.20;;;;;;5133127;28;20402;-80
2021/06/20 11:59:41;;;;;;;2.20;1.97;;;28.80;55.10;;;;;;5114472;28;20419;-80
2021/06/20 12:02:14;;;;;;;4.13;2.33;;;28.80;55.10;;;;;;5114974;28;20422;-78
2021/06/20 12:04:48;;;;;;;3.43;2.10;;;28.80;55.10;;;;;;5114277;28;20419;-81
2021/06/20 12:07:15;;;;;;;2.73;1.87;;;28.80;55.10;;;;;;5119916;28;20407;-78
2021/06/20 12:09:47;;;;;;;3.27;2.07;;;28.80;55.10;;;;;;5136216;28;20421;-79
2021/06/20 12:12:20;;;;;;;4.03;2.20;;;28.80;55.10;;;;;;5119433;28;20452;-80
2021/06/20 12:15:22;;;;;;;2.70;2.03;;;28.80;55.10;;;;;;5137033;28;20524;-80
2021/06/20 12:21:28;;;;;;;2.70;2.40;;;28.80;55.10;;;;;;5136944;28;20465;-79
2021/06/20 12:23:59;;;;;;;2.60;2.07;;;28.80;55.20;;;;;;5117665;28;20422;-79
2021/06/20 12:26:25;;;;;;;5.00;2.10;;;28.80;55.20;;;;;;5117997;28;20426;-78
2021/06/20 12:28:55;;;;;;;3.10;2.30;;;28.80;55.20;;;;;;5118149;28;20479;-79
2021/06/20 12:31:21;;;;;;;2.40;2.00;;;28.80;55.10;;;;;;5117991;28;20184;-78
2021/06/20 12:34:03;;;;;;;3.30;2.33;;;28.80;55.10;;;;;;5117980;28;20434;-78
2021/06/20 12:36:36;;;;;;;4.20;2.43;;;28.80;55.10;;;;;;5118730;28;20386;-78
2021/06/20 12:39:06;;;;;;;2.57;2.37;;;28.80;55.10;;;;;;5122530;28;20439;-78
2021/06/20 12:41:36;;;;;;;4.30;2.43;;;28.80;55.10;;;;;;5122945;28;20406;-78
2021/06/20 12:44:07;;;;;;;2.97;2.33;;;28.90;55.10;;;;;;5141196;28;20450;-78
2021/06/20 12:46:42;;;;;;;2.63;2.43;;;28.80;55.10;;;;;;5122722;28;20421;-78
2021/06/20 12:49:12;;;;;;;4.70;2.47;;;28.80;55.10;;;;;;5122592;28;20521;-78
2021/06/20 12:51:54;;;;;;;2.27;2.07;;;28.80;55.10;;;;;;5140079;28;20443;-77
2021/06/20 12:54:56;;;;;;;2.57;2.37;;;28.80;55.10;;;;;;5122388;28;20414;-77
2021/06/20 12:57:26;;;;;;;3.00;2.30;;;28.80;55.00;;;;;;5136124;28;20386;-78
2021/06/20 12:59:54;;;;;;;3.10;2.50;;;28.80;55.10;;;;;;5118951;28;20410;-80
2021/06/20 13:02:24;;;;;;;4.00;2.43;;;28.80;55.10;;;;;;5135778;28;20434;-80
2021/06/20 13:04:51;;;;;;;4.97;2.10;;;28.80;55.10;;;;;;5117688;28;20411;-80
2021/06/20 13:07:38;;;;;;;2.67;2.00;;;28.80;55.10;;;;;;5118491;28;20414;-80
2021/06/20 13:10:17;;;;;;;2.50;1.97;;;28.90;55.10;;;;;;5119156;28;20398;-78
2021/06/20 13:12:43;;;;;;;2.90;1.97;;;28.80;55.10;;;;;;5140296;28;20375;-77
2021/06/20 13:15:14;;;;;;;2.37;1.97;;;28.80;55.10;;;;;;5140678;28;20408;-78
2021/06/20 13:17:44;;;;;;;2.97;2.20;;;28.80;55.10;;;;;;5121278;28;20176;-78
2021/06/20 13:20:13;;;;;;;3.10;2.57;;;28.80;55.10;;;;;;5139681;28;20400;-78
2021/06/20 13:22:45;;;;;;;3.43;2.10;;;28.80;55.10;;;;;;5122356;28;20442;-78
2021/06/20 13:25:14;;;;;;;5.07;2.40;;;28.80;55.10;;;;;;5103083;28;20393;-82
2021/06/20 13:34:29;;;;;;;2.10;1.83;;;28.80;55.10;;;;;;4994233;28;20403;-80
2021/06/20 13:37:02;;;;;;;3.17;2.50;;;28.80;55.20;;;;;;4996594;28;20412;-79
2021/06/20 13:39:34;;;;;;;3.73;1.80;;;28.80;55.10;;;;;;4981318;28;20425;-79
2021/06/20 13:42:00;;;;;;;3.70;2.10;;;28.80;55.10;;;;;;4977799;28;20453;-80
2021/06/20 13:44:26;;;;;;;2.70;2.30;;;28.80;55.10;;;;;;4978193;28;20429;-78
2021/06/20 13:46:52;;;;;;;2.30;2.10;;;28.80;55.10;;;;;;4982082;28;20425;-79
2021/06/20 13:52:40;;;;;;;2.03;1.77;;;28.90;55.10;;;;;;4996981;28;20294;-79
2021/06/20 13:55:11;;;;;;;2.60;2.07;;;28.80;55.10;;;;;;4998446;28;20464;-79